This is the latest recevied weather packets stored in our database for station/object DL6JOE-10. If no packets are shown the sender has not sent any weather packets the latest 10 day(s).
| Time | Temp. | Humidity | Pressure | Rain* | Wind** | Luminosity | Snow |
|---|---|---|---|---|---|---|---|
| 1788348479 | 28.89° C | 37% | 967.4 hPa | - | - | - | - |
| 1788347579 | 28.33° C | 40% | 967.5 hPa | - | - | - | - |
| 1788346679 | 27.78° C | 40% | 967.7 hPa | - | - | - | - |
| 1788344879 | 26.67° C | 43% | 967.9 hPa | - | - | - | - |
| 1788343979 | 25° C | 45% | 968.1 hPa | - | - | - | - |
| 1788343079 | 24.44° C | 46% | 968.2 hPa | - | - | - | - |
| 1788341278 | 23.89° C | 47% | 968.2 hPa | - | - | - | - |
| 1788340378 | 22.22° C | 49% | 968.5 hPa | - | - | - | - |
| 1788339478 | 21.11° C | 51% | 968.5 hPa | - | - | - | - |
| 1788338578 | 20.56° C | 52% | 968.4 hPa | - | - | - | - |
| 1788337678 | 20° C | 52% | 968.5 hPa | - | - | - | - |
| 1788336778 | 20° C | 52% | 968.1 hPa | - | - | - | - |
| 1788335878 | 18.89° C | 53% | 968.5 hPa | - | - | - | - |
| 1788334978 | 18.89° C | 53% | 968.4 hPa | - | - | - | - |
| 1788334078 | 18.33° C | 53% | 968.2 hPa | - | - | - | - |
| 1788333178 | 17.78° C | 52% | 968.1 hPa | - | - | - | - |
| 1788332278 | 17.22° C | 53% | 968.3 hPa | - | - | - | - |
| 1788331377 | 16.67° C | 52% | 968.4 hPa | - | - | - | - |
| 1788330477 | 16.67° C | 52% | 968.3 hPa | - | - | - | - |
| 1788329577 | 16.11° C | 52% | 968.3 hPa | - | - | - | - |
| 1788328677 | 16.11° C | 51% | 968.4 hPa | - | - | - | - |
| 1788323277 | 15.56° C | 51% | 968 hPa | - | - | - | - |
| 1788301674 | 20° C | 45% | 968.7 hPa | - | - | - | - |
| 1788300774 | 20.56° C | 44% | 968.5 hPa | - | - | - | - |
| 1788299874 | 20.56° C | 43% | 968.5 hPa | - | - | - | - |
* Rain since midnight (hover to see other rain measurements)
** Current wind speed in m/s (hover to see current wind gust speed)